Time;durP1;ratioP1;P1;durP2;ratioP2;P2;SDS_P1;SDS_P2;PMS_P1;PMS_P2;Temp;Humidity;BMP_temperature;BMP_pressure;BME280_temperature;BME280_humidity;BME280_pressure;Samples;Min_cycle;Max_cycle;Signal;HPM_P1;HPM_P2
2022/05/26 00:01:07;;;;;;;15.50;4.12;;;;;;;;;;4466478;32;20226;-54
2022/05/26 00:03:38;;;;;;;11.73;4.20;;;;;;;;;;4465399;32;20242;-56
2022/05/26 00:06:06;;;;;;;16.05;3.72;;;;;;;;;;4466619;32;20284;-55
2022/05/26 00:08:32;;;;;;;11.15;3.70;;;;;;;;;;4457564;32;20238;-56
2022/05/26 00:10:58;;;;;;;15.05;4.32;;;;;;;;;;4450861;32;20335;-55
2022/05/26 00:13:25;;;;;;;20.70;11.07;;;;;;;;;;4450860;32;20653;-56
2022/05/26 00:15:51;;;;;;;19.80;7.32;;;;;;;;;;4450855;32;20208;-56
2022/05/26 00:18:17;;;;;;;15.23;5.07;;;;;;;;;;4450925;32;20617;-56
2022/05/26 00:20:42;;;;;;;14.43;5.10;;;;;;;;;;4450513;32;20200;-56
2022/05/26 00:23:08;;;;;;;19.15;4.55;;;;;;;;;;4451006;32;20220;-55
2022/05/26 00:25:33;;;;;;;9.55;4.57;;;;;;;;;;4450884;32;20632;-55
2022/05/26 00:27:59;;;;;;;16.33;4.97;;;;;;;;;;4450573;32;20554;-56
2022/05/26 00:30:25;;;;;;;22.98;5.07;;;;;;;;;;4450458;32;20232;-56
2022/05/26 00:32:50;;;;;;;16.02;4.75;;;;;;;;;;4450497;32;20228;-55
2022/05/26 00:35:16;;;;;;;19.67;5.30;;;;;;;;;;4450425;32;20258;-56
2022/05/26 00:37:43;;;;;;;18.62;4.62;;;;;;;;;;4450706;32;20248;-56
2022/05/26 00:40:10;;;;;;;14.85;4.97;;;;;;;;;;4450816;32;20201;-55
2022/05/26 00:42:36;;;;;;;18.30;5.40;;;;;;;;;;4450744;32;20270;-55
2022/05/26 00:45:03;;;;;;;13.38;3.92;;;;;;;;;;4450342;32;20315;-56
2022/05/26 00:47:34;;;;;;;10.35;3.45;;;;;;;;;;4449876;32;20649;-55
2022/05/26 00:50:18;;;;;;;13.50;4.82;;;;;;;;;;4450582;32;20188;-56
2022/05/26 00:52:56;;;;;;;13.73;4.75;;;;;;;;;;4453252;32;20296;-55
2022/05/26 00:55:33;;;;;;;14.75;5.03;;;;;;;;;;4450193;32;20205;-55
2022/05/26 00:58:04;;;;;;;24.45;5.72;;;;;;;;;;4452842;32;20285;-55
2022/05/26 01:00:34;;;;;;;9.73;4.65;;;;;;;;;;4465739;32;20188;-55
2022/05/26 01:03:18;;;;;;;23.38;4.78;;;;;;;;;;4465768;32;20228;-55
2022/05/26 01:06:05;;;;;;;14.90;5.05;;;;;;;;;;4464479;32;20503;-55
2022/05/26 01:08:46;;;;;;;15.13;4.57;;;;;;;;;;4450119;32;20237;-55
2022/05/26 01:11:12;;;;;;;19.23;5.93;;;;;;;;;;4450102;32;20346;-55
2022/05/26 01:13:47;;;;;;;17.00;5.70;;;;;;;;;;4450252;32;20670;-55
2022/05/26 01:16:40;;;;;;;16.92;6.40;;;;;;;;;;4450027;32;20281;-55
2022/05/26 01:19:35;;;;;;;16.17;6.20;;;;;;;;;;4450196;32;20212;-55
2022/05/26 01:22:31;;;;;;;11.68;4.87;;;;;;;;;;4449958;32;20282;-55
2022/05/26 01:25:31;;;;;;;18.67;5.05;;;;;;;;;;4450200;32;20219;-56
2022/05/26 01:28:34;;;;;;;11.43;3.97;;;;;;;;;;4449700;32;20339;-55
2022/05/26 01:31:11;;;;;;;23.15;6.20;;;;;;;;;;4449430;32;20282;-55
2022/05/26 01:33:42;;;;;;;11.18;4.05;;;;;;;;;;4449454;32;20268;-55
2022/05/26 01:36:55;;;;;;;11.23;4.43;;;;;;;;;;4449324;32;20300;-55
2022/05/26 01:39:47;;;;;;;13.02;4.25;;;;;;;;;;4445446;32;20259;-55
2022/05/26 01:42:34;;;;;;;13.13;4.35;;;;;;;;;;4427185;32;20639;-56
2022/05/26 01:45:17;;;;;;;22.00;4.50;;;;;;;;;;4449719;32;20581;-55
2022/05/26 01:47:56;;;;;;;12.23;4.25;;;;;;;;;;4449550;32;20611;-55
2022/05/26 01:50:33;;;;;;;10.85;4.30;;;;;;;;;;4449570;32;20281;-55
2022/05/26 01:53:37;;;;;;;19.40;4.70;;;;;;;;;;4449347;32;20243;-55
2022/05/26 01:56:28;;;;;;;16.98;4.90;;;;;;;;;;4441685;32;20252;-56
2022/05/26 01:59:03;;;;;;;15.65;5.60;;;;;;;;;;4457725;32;20216;-55
2022/05/26 02:01:34;;;;;;;11.57;4.80;;;;;;;;;;4464754;32;20295;-55
2022/05/26 02:04:02;;;;;;;10.32;4.80;;;;;;;;;;4464623;32;20208;-55
2022/05/26 02:06:38;;;;;;;16.30;5.22;;;;;;;;;;4464714;32;20329;-55
2022/05/26 02:09:15;;;;;;;17.20;5.70;;;;;;;;;;4452478;32;20231;-55
2022/05/26 02:11:49;;;;;;;11.43;4.85;;;;;;;;;;4448975;32;20595;-55
2022/05/26 02:14:21;;;;;;;14.48;4.85;;;;;;;;;;4449168;32;20203;-55
2022/05/26 02:17:05;;;;;;;13.27;4.68;;;;;;;;;;4449005;32;20747;-55
2022/05/26 02:19:54;;;;;;;10.25;4.97;;;;;;;;;;4448882;32;20192;-55
2022/05/26 02:22:28;;;;;;;11.98;4.93;;;;;;;;;;4448769;32;20220;-55
2022/05/26 02:24:58;;;;;;;17.12;4.70;;;;;;;;;;4447524;32;20701;-55
2022/05/26 02:27:26;;;;;;;14.65;4.45;;;;;;;;;;4448575;32;20437;-56
2022/05/26 02:29:52;;;;;;;16.52;5.72;;;;;;;;;;4448649;32;20208;-55
2022/05/26 02:32:39;;;;;;;13.48;4.82;;;;;;;;;;4448020;32;20323;-55
2022/05/26 02:35:12;;;;;;;12.25;4.15;;;;;;;;;;4449236;32;20232;-55
2022/05/26 02:37:39;;;;;;;14.65;4.85;;;;;;;;;;4449120;32;20300;-55
2022/05/26 02:40:08;;;;;;;10.40;5.20;;;;;;;;;;4448800;32;20199;-56
2022/05/26 02:42:40;;;;;;;10.30;5.47;;;;;;;;;;4448553;32;20637;-55
2022/05/26 02:45:06;;;;;;;21.00;6.30;;;;;;;;;;4458821;32;20295;-55
2022/05/26 02:47:50;;;;;;;18.23;4.97;;;;;;;;;;4464366;32;20307;-55
2022/05/26 02:50:41;;;;;;;11.82;4.90;;;;;;;;;;4464286;32;20686;-54
2022/05/26 02:53:18;;;;;;;14.30;5.47;;;;;;;;;;4464066;32;20706;-55
2022/05/26 02:56:18;;;;;;;10.43;4.72;;;;;;;;;;4464641;32;20220;-55
2022/05/26 02:58:59;;;;;;;8.73;4.45;;;;;;;;;;4455679;32;20216;-55
2022/05/26 03:01:38;;;;;;;13.32;4.93;;;;;;;;;;4448694;32;20224;-56
2022/05/26 03:04:06;;;;;;;16.23;4.87;;;;;;;;;;4448981;32;20244;-56
2022/05/26 03:06:38;;;;;;;9.90;4.32;;;;;;;;;;4448791;32;20341;-56
2022/05/26 03:09:05;;;;;;;12.82;4.90;;;;;;;;;;4460613;32;20259;-56
2022/05/26 03:11:49;;;;;;;11.95;4.87;;;;;;;;;;4463983;32;20647;-55
2022/05/26 03:14:16;;;;;;;19.05;5.43;;;;;;;;;;4464210;32;20236;-55
2022/05/26 03:16:42;;;;;;;19.25;5.32;;;;;;;;;;4464321;32;20231;-55
2022/05/26 03:19:08;;;;;;;14.55;5.50;;;;;;;;;;4464159;32;20626;-56
2022/05/26 03:21:34;;;;;;;11.02;5.47;;;;;;;;;;4464598;32;20298;-55
2022/05/26 03:24:00;;;;;;;16.87;5.62;;;;;;;;;;4464956;32;20289;-56
2022/05/26 03:26:26;;;;;;;12.35;5.32;;;;;;;;;;4451726;32;20252;-55
2022/05/26 03:28:51;;;;;;;16.92;5.28;;;;;;;;;;4452530;32;20279;-56
2022/05/26 03:31:17;;;;;;;12.35;5.80;;;;;;;;;;4452561;32;20631;-55
2022/05/26 03:41:56;;;;;;;13.80;5.68;;;;;;;;;;4451792;32;20275;-57
2022/05/26 03:44:21;;;;;;;19.60;6.10;;;;;;;;;;4451832;32;20345;-56
2022/05/26 03:46:49;;;;;;;18.95;6.10;;;;;;;;;;4451848;32;20280;-55
2022/05/26 03:49:14;;;;;;;16.27;6.70;;;;;;;;;;4450942;32;20212;-55
2022/05/26 03:51:40;;;;;;;20.12;5.82;;;;;;;;;;4452169;32;20251;-54
2022/05/26 03:54:05;;;;;;;12.52;5.28;;;;;;;;;;4467470;32;20394;-55
2022/05/26 03:56:31;;;;;;;12.60;4.60;;;;;;;;;;4452422;32;20295;-55
2022/05/26 03:58:56;;;;;;;19.87;4.85;;;;;;;;;;4459876;32;20411;-56
2022/05/26 04:01:22;;;;;;;19.92;5.80;;;;;;;;;;4467100;32;20683;-54
2022/05/26 04:03:48;;;;;;;18.92;7.12;;;;;;;;;;4466894;32;20639;-56
2022/05/26 04:06:15;;;;;;;13.23;4.87;;;;;;;;;;4467008;32;20240;-56
2022/05/26 04:08:41;;;;;;;17.67;4.97;;;;;;;;;;4457498;32;20317;-56
2022/05/26 04:11:07;;;;;;;12.65;5.12;;;;;;;;;;4451561;32;20196;-55
2022/05/26 04:13:32;;;;;;;13.23;5.15;;;;;;;;;;4451485;32;20776;-56
2022/05/26 04:15:58;;;;;;;15.90;5.35;;;;;;;;;;4450370;32;20280;-54
2022/05/26 04:18:23;;;;;;;12.02;4.25;;;;;;;;;;4451616;32;20607;-56
2022/05/26 04:20:49;;;;;;;15.32;4.60;;;;;;;;;;4451512;32;20208;-55
2022/05/26 04:23:14;;;;;;;18.83;5.22;;;;;;;;;;4451306;32;20299;-55
2022/05/26 04:25:40;;;;;;;17.08;5.22;;;;;;;;;;4451197;32;20284;-54
2022/05/26 04:28:05;;;;;;;13.80;5.82;;;;;;;;;;4451254;32;20241;-55
2022/05/26 04:30:31;;;;;;;20.65;8.15;;;;;;;;;;4450842;32;20288;-55
2022/05/26 04:32:57;;;;;;;22.87;10.73;;;;;;;;;;4451348;32;20229;-55
2022/05/26 04:35:22;;;;;;;15.68;8.02;;;;;;;;;;4449895;32;20289;-55
2022/05/26 04:37:48;;;;;;;16.08;6.60;;;;;;;;;;4450586;32;20337;-55
2022/05/26 04:40:14;;;;;;;18.75;6.68;;;;;;;;;;4450947;32;20312;-56
2022/05/26 04:42:40;;;;;;;14.20;5.30;;;;;;;;;;4451174;32;20229;-56
2022/05/26 04:45:11;;;;;;;16.80;6.55;;;;;;;;;;4450658;32;20267;-55
2022/05/26 04:47:36;;;;;;;17.75;5.68;;;;;;;;;;4450456;32;20289;-54
2022/05/26 04:50:02;;;;;;;23.87;5.82;;;;;;;;;;4450913;32;20267;-55
2022/05/26 04:52:28;;;;;;;13.05;6.07;;;;;;;;;;4456528;32;20328;-55
2022/05/26 04:54:53;;;;;;;14.32;5.82;;;;;;;;;;4466422;32;20403;-56
2022/05/26 04:57:22;;;;;;;21.85;5.85;;;;;;;;;;4466565;32;20291;-56
2022/05/26 04:59:48;;;;;;;17.33;5.45;;;;;;;;;;4465574;32;20617;-56
2022/05/26 05:02:15;;;;;;;11.48;6.03;;;;;;;;;;4466305;32;20777;-55
2022/05/26 05:04:44;;;;;;;12.05;5.40;;;;;;;;;;4464401;32;20234;-55
2022/05/26 05:07:09;;;;;;;17.02;5.80;;;;;;;;;;4465436;32;20583;-55
2022/05/26 05:09:36;;;;;;;13.48;5.43;;;;;;;;;;4465448;32;20430;-57
2022/05/26 05:12:03;;;;;;;21.83;5.72;;;;;;;;;;4465723;32;20228;-55
2022/05/26 05:14:33;;;;;;;20.88;6.50;;;;;;;;;;4465615;32;20253;-55
2022/05/26 05:16:58;;;;;;;16.37;5.53;;;;;;;;;;4464627;32;20636;-55
2022/05/26 05:19:24;;;;;;;14.82;5.28;;;;;;;;;;4450070;32;20301;-55
2022/05/26 05:21:55;;;;;;;18.10;6.05;;;;;;;;;;4448246;32;20651;-55
2022/05/26 05:24:27;;;;;;;20.35;6.72;;;;;;;;;;4449468;32;20292;-56
2022/05/26 05:26:56;;;;;;;16.40;6.03;;;;;;;;;;4449858;32;20254;-56
2022/05/26 05:29:26;;;;;;;20.65;6.87;;;;;;;;;;4449800;32;20189;-55
2022/05/26 05:31:56;;;;;;;25.10;6.12;;;;;;;;;;4449401;32;20340;-56
2022/05/26 05:34:29;;;;;;;20.33;7.40;;;;;;;;;;4450080;32;20255;-55
2022/05/26 05:36:56;;;;;;;19.20;6.45;;;;;;;;;;4449934;32;20275;-54
2022/05/26 05:39:23;;;;;;;25.37;6.75;;;;;;;;;;4450110;32;20280;-57
2022/05/26 05:41:48;;;;;;;17.08;7.10;;;;;;;;;;4449688;32;20315;-55
2022/05/26 05:44:14;;;;;;;22.95;7.20;;;;;;;;;;4449541;32;20357;-55
2022/05/26 05:46:54;;;;;;;26.98;6.72;;;;;;;;;;4449775;32;20632;-55
2022/05/26 05:49:30;;;;;;;25.75;6.70;;;;;;;;;;4449583;32;20200;-55
2022/05/26 05:52:02;;;;;;;18.85;7.03;;;;;;;;;;4450133;32;20647;-56
2022/05/26 05:54:31;;;;;;;13.65;6.05;;;;;;;;;;4450315;32;20275;-54
2022/05/26 05:56:57;;;;;;;12.27;6.62;;;;;;;;;;4449581;32;20255;-55
2022/05/26 05:59:23;;;;;;;13.45;7.15;;;;;;;;;;4449409;32;20279;-57
2022/05/26 06:01:48;;;;;;;19.00;6.78;;;;;;;;;;4449340;32;20224;-55
2022/05/26 06:04:14;;;;;;;14.80;6.60;;;;;;;;;;4449291;32;20628;-54
2022/05/26 06:06:42;;;;;;;26.42;7.53;;;;;;;;;;4449101;32;20247;-54
2022/05/26 06:09:09;;;;;;;12.37;5.35;;;;;;;;;;4448872;32;20279;-56
2022/05/26 06:11:35;;;;;;;19.85;6.93;;;;;;;;;;4448790;32;20906;-55
2022/05/26 06:14:02;;;;;;;11.30;5.93;;;;;;;;;;4454938;32;20270;-58
2022/05/26 06:16:29;;;;;;;19.12;6.87;;;;;;;;;;4464630;32;20216;-56
2022/05/26 06:18:54;;;;;;;18.90;6.87;;;;;;;;;;4464481;32;20223;-55
2022/05/26 06:21:20;;;;;;;12.70;6.22;;;;;;;;;;4460557;32;20283;-55
2022/05/26 06:23:45;;;;;;;13.57;6.43;;;;;;;;;;4449117;32;20681;-55
2022/05/26 06:26:11;;;;;;;17.25;6.37;;;;;;;;;;4448186;32;20395;-55
2022/05/26 06:31:22;;;;;;;19.45;6.65;;;;;;;;;;4448288;32;20251;-55
2022/05/26 06:39:17;;;;;;;19.58;6.60;;;;;;;;;;4449165;32;20598;-55
2022/05/26 06:44:26;;;;;;;15.10;6.18;;;;;;;;;;4447177;32;20231;-55
2022/05/26 06:46:52;;;;;;;16.77;6.07;;;;;;;;;;4448462;32;20224;-56
2022/05/26 06:49:17;;;;;;;13.15;5.65;;;;;;;;;;4447478;32;20689;-55
2022/05/26 06:51:44;;;;;;;29.42;8.60;;;;;;;;;;4446224;32;20221;-55
2022/05/26 06:54:11;;;;;;;18.95;6.47;;;;;;;;;;4447532;32;20327;-55
2022/05/26 06:56:36;;;;;;;20.17;8.27;;;;;;;;;;4447109;32;20771;-55
2022/05/26 06:59:02;;;;;;;15.75;7.47;;;;;;;;;;4457693;32;20305;-55
2022/05/26 07:01:27;;;;;;;15.07;6.82;;;;;;;;;;4466084;32;20417;-56
2022/05/26 07:03:53;;;;;;;20.77;8.43;;;;;;;;;;4466586;32;20329;-55
2022/05/26 07:06:22;;;;;;;23.65;6.80;;;;;;;;;;4466517;32;20225;-55
2022/05/26 07:08:48;;;;;;;11.68;6.15;;;;;;;;;;4466690;32;20331;-55
2022/05/26 07:11:15;;;;;;;21.25;7.00;;;;;;;;;;4453921;32;20228;-56
2022/05/26 07:13:40;;;;;;;13.65;6.22;;;;;;;;;;4449893;32;20200;-55
2022/05/26 07:16:07;;;;;;;25.60;6.53;;;;;;;;;;4450811;32;20291;-55
2022/05/26 07:18:32;;;;;;;14.00;5.62;;;;;;;;;;4451057;32;20248;-56
2022/05/26 07:20:58;;;;;;;21.40;5.70;;;;;;;;;;4449979;32;20275;-56
2022/05/26 07:23:23;;;;;;;16.85;5.30;;;;;;;;;;4450994;32;20272;-55
2022/05/26 07:25:49;;;;;;;14.27;5.70;;;;;;;;;;4450956;32;20231;-55
2022/05/26 07:28:14;;;;;;;15.20;5.45;;;;;;;;;;4450985;32;20429;-56
2022/05/26 07:30:41;;;;;;;21.23;5.15;;;;;;;;;;4451239;32;20263;-55
2022/05/26 07:33:07;;;;;;;12.20;4.85;;;;;;;;;;4451304;32;20336;-55
2022/05/26 07:35:33;;;;;;;18.25;5.15;;;;;;;;;;4450976;32;20228;-55
2022/05/26 07:43:31;;;;;;;12.98;4.35;;;;;;;;;;4449498;32;20235;-56
2022/05/26 07:45:57;;;;;;;25.80;4.90;;;;;;;;;;4450857;32;20296;-56
2022/05/26 07:48:23;;;;;;;14.43;6.10;;;;;;;;;;4450780;32;20291;-56
2022/05/26 07:50:48;;;;;;;11.15;3.67;;;;;;;;;;4450739;32;20246;-56
2022/05/26 07:53:14;;;;;;;12.52;4.40;;;;;;;;;;4450825;32;20407;-55
2022/05/26 07:55:42;;;;;;;13.27;4.93;;;;;;;;;;4450584;32;20241;-57
2022/05/26 07:58:09;;;;;;;6.82;4.55;;;;;;;;;;4454776;32;20326;-56
2022/05/26 08:00:35;;;;;;;7.87;3.33;;;;;;;;;;4466659;32;20608;-55
2022/05/26 08:03:01;;;;;;;12.77;3.97;;;;;;;;;;4466375;32;20251;-56
2022/05/26 08:05:26;;;;;;;10.93;3.95;;;;;;;;;;4457166;32;20229;-56
2022/05/26 08:07:52;;;;;;;15.77;4.22;;;;;;;;;;4450654;32;20404;-58
2022/05/26 08:10:17;;;;;;;17.87;4.43;;;;;;;;;;4450813;32;20370;-55
2022/05/26 08:12:43;;;;;;;10.40;4.32;;;;;;;;;;4450444;32;20256;-56
2022/05/26 08:15:10;;;;;;;18.83;4.43;;;;;;;;;;4450765;32;20664;-56
2022/05/26 08:17:36;;;;;;;10.50;4.40;;;;;;;;;;4449702;32;20274;-55
2022/05/26 08:20:02;;;;;;;6.60;3.72;;;;;;;;;;4448318;32;20704;-57
2022/05/26 08:22:28;;;;;;;18.10;5.68;;;;;;;;;;4449838;32;20315;-57
2022/05/26 08:24:56;;;;;;;9.20;3.67;;;;;;;;;;4451026;32;20632;-55
2022/05/26 08:27:21;;;;;;;9.60;4.12;;;;;;;;;;4448080;32;20248;-55
2022/05/26 08:29:47;;;;;;;13.32;3.95;;;;;;;;;;4449805;32;20298;-56
2022/05/26 08:32:15;;;;;;;19.23;4.60;;;;;;;;;;4450196;32;20240;-57
2022/05/26 08:34:40;;;;;;;15.75;4.45;;;;;;;;;;4450799;32;20273;-56
2022/05/26 08:37:12;;;;;;;10.10;4.35;;;;;;;;;;4449707;32;20224;-56
2022/05/26 08:39:38;;;;;;;17.00;3.95;;;;;;;;;;4450067;32;20639;-57
2022/05/26 08:42:04;;;;;;;12.98;3.90;;;;;;;;;;4449939;32;20256;-55
2022/05/26 08:44:31;;;;;;;12.88;4.45;;;;;;;;;;4450743;32;20271;-57
2022/05/26 08:47:01;;;;;;;9.40;4.32;;;;;;;;;;4450055;32;20524;-56
2022/05/26 08:49:29;;;;;;;10.65;5.75;;;;;;;;;;4450441;32;20219;-56
2022/05/26 08:52:00;;;;;;;10.90;3.87;;;;;;;;;;4449575;32;20236;-56
2022/05/26 08:54:39;;;;;;;16.25;3.53;;;;;;;;;;4449735;32;20649;-55
2022/05/26 08:57:10;;;;;;;8.02;2.70;;;;;;;;;;4450175;32;20359;-56
2022/05/26 08:59:40;;;;;;;5.47;2.40;;;;;;;;;;4450326;32;20223;-56
2022/05/26 09:02:23;;;;;;;9.43;2.87;;;;;;;;;;4449868;32;20229;-55
2022/05/26 09:04:49;;;;;;;12.68;3.33;;;;;;;;;;4450475;32;20205;-55
2022/05/26 09:12:57;;;;;;;17.87;2.80;;;;;;;;;;4465340;32;20363;-57
2022/05/26 09:15:23;;;;;;;13.38;2.92;;;;;;;;;;4465478;32;20192;-55
2022/05/26 09:17:49;;;;;;;12.05;3.42;;;;;;;;;;4464965;32;20232;-56
2022/05/26 09:20:27;;;;;;;10.02;2.92;;;;;;;;;;4465276;32;20688;-56
2022/05/26 09:22:52;;;;;;;3.80;2.15;;;;;;;;;;4463784;32;20235;-55
2022/05/26 09:25:38;;;;;;;13.82;2.72;;;;;;;;;;4464667;32;20244;-56
2022/05/26 09:28:06;;;;;;;9.50;2.72;;;;;;;;;;4464143;32;20423;-56
2022/05/26 09:30:33;;;;;;;14.35;2.67;;;;;;;;;;4464340;32;20196;-56
2022/05/26 09:33:00;;;;;;;19.45;3.65;;;;;;;;;;4464201;32;20275;-55
2022/05/26 09:35:30;;;;;;;6.65;2.67;;;;;;;;;;4464622;32;20223;-55
2022/05/26 09:37:58;;;;;;;8.23;2.95;;;;;;;;;;4464769;32;20529;-56
2022/05/26 09:40:30;;;;;;;6.20;2.87;;;;;;;;;;4464997;32;20266;-55
2022/05/26 09:43:27;;;;;;;12.45;2.78;;;;;;;;;;4465335;32;20219;-56
2022/05/26 09:46:08;;;;;;;9.25;3.80;;;;;;;;;;4463859;32;20346;-56
2022/05/26 09:48:37;;;;;;;6.12;2.87;;;;;;;;;;4463266;32;20226;-55
2022/05/26 09:51:05;;;;;;;6.80;2.58;;;;;;;;;;4463576;32;20248;-56
2022/05/26 09:53:43;;;;;;;15.00;2.83;;;;;;;;;;4450073;32;20343;-56
2022/05/26 09:56:13;;;;;;;13.85;4.00;;;;;;;;;;4448892;32;20238;-56
2022/05/26 09:58:43;;;;;;;11.15;3.05;;;;;;;;;;4449153;32;20322;-56
2022/05/26 10:01:21;;;;;;;9.48;3.53;;;;;;;;;;4447911;32;20295;-55
2022/05/26 10:03:52;;;;;;;11.10;2.45;;;;;;;;;;4448320;32;20300;-57
2022/05/26 10:06:29;;;;;;;11.95;3.10;;;;;;;;;;4449098;32;20254;-57
2022/05/26 10:09:06;;;;;;;10.52;2.62;;;;;;;;;;4449007;32;20692;-56
2022/05/26 10:11:41;;;;;;;10.23;2.80;;;;;;;;;;4448594;32;20326;-56
2022/05/26 10:14:37;;;;;;;13.25;2.70;;;;;;;;;;4448162;32;20752;-56
2022/05/26 10:17:19;;;;;;;14.60;3.40;;;;;;;;;;4448085;32;20616;-56
2022/05/26 10:20:03;;;;;;;12.55;3.20;;;;;;;;;;4449024;32;20188;-55
2022/05/26 10:22:47;;;;;;;9.77;3.22;;;;;;;;;;4449000;32;20315;-55
2022/05/26 10:25:29;;;;;;;19.12;2.65;;;;;;;;;;4449420;32;20353;-56
2022/05/26 10:28:36;;;;;;;6.20;2.05;;;;;;;;;;4459001;32;20251;-55
2022/05/26 10:31:18;;;;;;;10.80;3.10;;;;;;;;;;4433030;32;20222;-56
2022/05/26 10:34:02;;;;;;;8.40;2.50;;;;;;;;;;4463827;32;20393;-56
2022/05/26 10:36:51;;;;;;;14.65;3.40;;;;;;;;;;4462554;32;20239;-55
2022/05/26 10:39:38;;;;;;;10.48;3.00;;;;;;;;;;4464190;32;20253;-56
2022/05/26 10:42:18;;;;;;;16.42;3.42;;;;;;;;;;4463819;32;20619;-56
2022/05/26 10:44:51;;;;;;;13.77;3.83;;;;;;;;;;4464257;32;20192;-56
2022/05/26 10:47:28;;;;;;;13.10;3.20;;;;;;;;;;4464173;32;20271;-56
2022/05/26 10:50:11;;;;;;;15.65;2.85;;;;;;;;;;4464146;32;20222;-55
2022/05/26 10:52:41;;;;;;;6.10;2.72;;;;;;;;;;4456577;32;20211;-55
2022/05/26 10:55:18;;;;;;;8.90;2.30;;;;;;;;;;4448898;32;20346;-59
2022/05/26 10:57:55;;;;;;;12.32;2.40;;;;;;;;;;4448914;32;20213;-56
2022/05/26 11:00:28;;;;;;;8.80;3.05;;;;;;;;;;4447834;32;20244;-56
2022/05/26 11:03:07;;;;;;;16.85;3.62;;;;;;;;;;4446767;32;20288;-56
2022/05/26 11:05:38;;;;;;;7.57;3.15;;;;;;;;;;4446632;32;20212;-55
2022/05/26 11:08:31;;;;;;;14.95;3.10;;;;;;;;;;4446055;32;20232;-56
2022/05/26 11:11:03;;;;;;;7.60;2.65;;;;;;;;;;4445970;32;20220;-57
2022/05/26 11:13:48;;;;;;;9.88;2.62;;;;;;;;;;4445875;32;20228;-55
2022/05/26 11:19:43;;;;;;;6.90;2.47;;;;;;;;;;4444873;32;20283;-56
2022/05/26 11:22:11;;;;;;;9.68;3.22;;;;;;;;;;4463663;32;20726;-55
2022/05/26 11:24:37;;;;;;;11.43;3.30;;;;;;;;;;4463981;32;20266;-55
2022/05/26 11:27:08;;;;;;;15.23;3.37;;;;;;;;;;4464013;32;20545;-56
2022/05/26 11:29:46;;;;;;;20.20;3.87;;;;;;;;;;4464388;32;20647;-55
2022/05/26 11:38:01;;;;;;;14.73;3.35;;;;;;;;;;4440649;32;20220;-54
2022/05/26 11:40:41;;;;;;;14.23;4.03;;;;;;;;;;4463203;32;20628;-54
2022/05/26 11:43:07;;;;;;;12.50;2.92;;;;;;;;;;4463407;32;20220;-55
2022/05/26 11:45:36;;;;;;;13.05;3.75;;;;;;;;;;4463654;32;20258;-55
2022/05/26 11:48:04;;;;;;;10.38;3.15;;;;;;;;;;4465138;32;20303;-56
2022/05/26 11:50:35;;;;;;;10.45;2.60;;;;;;;;;;4466287;32;20223;-56
2022/05/26 11:53:05;;;;;;;14.65;3.35;;;;;;;;;;4465544;32;20227;-56
2022/05/26 11:55:52;;;;;;;14.05;2.95;;;;;;;;;;4465658;32;20196;-55
2022/05/26 11:59:14;;;;;;;10.57;4.18;;;;;;;;;;4465945;32;20230;-55
2022/05/26 12:01:40;;;;;;;8.32;2.78;;;;;;;;;;4431436;32;20286;-55
2022/05/26 12:04:24;;;;;;;11.00;3.10;;;;;;;;;;4430564;32;20345;-56
2022/05/26 12:06:55;;;;;;;6.57;2.75;;;;;;;;;;4454875;32;20256;-55
2022/05/26 12:09:36;;;;;;;8.00;3.30;;;;;;;;;;4451391;32;20209;-55
2022/05/26 12:12:29;;;;;;;7.80;2.92;;;;;;;;;;4450002;32;20265;-55
2022/05/26 12:15:07;;;;;;;9.60;2.10;;;;;;;;;;4448714;32;20307;-56
2022/05/26 12:18:18;;;;;;;9.18;3.12;;;;;;;;;;4448308;32;20215;-56
2022/05/26 12:20:46;;;;;;;25.75;13.65;;;;;;;;;;4386772;32;20206;-57
2022/05/26 12:23:18;;;;;;;8.98;3.05;;;;;;;;;;4442200;32;20268;-56
2022/05/26 12:25:46;;;;;;;8.25;2.47;;;;;;;;;;4449597;32;20309;-55
2022/05/26 12:28:14;;;;;;;7.87;2.30;;;;;;;;;;4461513;32;20268;-55
2022/05/26 12:30:40;;;;;;;8.05;2.72;;;;;;;;;;4463957;32;20683;-55
2022/05/26 12:33:23;;;;;;;5.68;1.87;;;;;;;;;;4463946;32;20263;-55
2022/05/26 12:36:33;;;;;;;6.60;2.47;;;;;;;;;;4465835;32;20708;-55
2022/05/26 12:39:24;;;;;;;10.85;2.62;;;;;;;;;;4440631;32;20243;-55
2022/05/26 12:42:07;;;;;;;10.40;2.83;;;;;;;;;;4463173;32;20220;-56
2022/05/26 12:44:57;;;;;;;10.07;2.45;;;;;;;;;;4465844;32;20209;-56
2022/05/26 12:47:36;;;;;;;7.37;2.42;;;;;;;;;;4465387;32;20247;-54
2022/05/26 12:50:09;;;;;;;7.05;3.03;;;;;;;;;;4465268;32;20223;-56
2022/05/26 12:52:37;;;;;;;7.18;2.70;;;;;;;;;;4457235;32;20236;-56
2022/05/26 12:55:33;;;;;;;13.32;2.62;;;;;;;;;;4449873;32;20196;-56
2022/05/26 12:58:10;;;;;;;12.07;2.28;;;;;;;;;;4449581;32;20336;-56
2022/05/26 13:00:47;;;;;;;14.35;3.10;;;;;;;;;;4449542;32;20204;-55
2022/05/26 13:03:22;;;;;;;8.80;3.05;;;;;;;;;;4450086;32;20312;-54
2022/05/26 13:05:58;;;;;;;19.33;3.28;;;;;;;;;;4449360;32;20311;-55
2022/05/26 13:08:27;;;;;;;13.38;3.62;;;;;;;;;;4448223;32;20584;-55
2022/05/26 13:10:55;;;;;;;6.05;2.47;;;;;;;;;;4449839;32;20224;-55
2022/05/26 13:13:41;;;;;;;10.38;2.70;;;;;;;;;;4449884;32;20280;-56
2022/05/26 13:16:28;;;;;;;8.10;3.05;;;;;;;;;;4449382;32;20394;-56
2022/05/26 13:18:55;;;;;;;6.72;2.37;;;;;;;;;;4449575;32;20250;-55
2022/05/26 13:21:29;;;;;;;9.10;3.75;;;;;;;;;;4448866;32;20251;-56
2022/05/26 13:23:54;;;;;;;9.18;2.97;;;;;;;;;;4449157;32;20184;-55
2022/05/26 13:26:20;;;;;;;8.73;2.58;;;;;;;;;;4449220;32;20694;-55
2022/05/26 13:28:56;;;;;;;13.62;3.00;;;;;;;;;;4464970;32;20238;-56
2022/05/26 13:34:09;;;;;;;19.12;2.97;;;;;;;;;;4465153;32;20282;-55
2022/05/26 13:36:37;;;;;;;14.95;3.50;;;;;;;;;;4464953;32;20280;-54
2022/05/26 13:39:12;;;;;;;9.77;2.92;;;;;;;;;;4465298;32;20223;-55
2022/05/26 13:41:41;;;;;;;9.20;3.92;;;;;;;;;;4464880;32;20318;-55
2022/05/26 13:44:09;;;;;;;6.97;2.62;;;;;;;;;;4464454;32;20547;-56
2022/05/26 13:46:43;;;;;;;8.15;2.85;;;;;;;;;;4463994;32;20259;-55
2022/05/26 13:49:17;;;;;;;9.10;3.50;;;;;;;;;;4464120;32;20679;-55
2022/05/26 13:51:46;;;;;;;9.93;3.85;;;;;;;;;;4463953;32;20680;-55
2022/05/26 13:54:23;;;;;;;13.95;3.33;;;;;;;;;;4464312;32;20367;-56
2022/05/26 13:56:49;;;;;;;11.18;3.42;;;;;;;;;;4463006;32;20315;-55
2022/05/26 13:59:16;;;;;;;9.10;2.97;;;;;;;;;;4464452;32;20683;-57
2022/05/26 14:02:04;;;;;;;6.65;3.22;;;;;;;;;;4464544;32;20550;-55
2022/05/26 14:04:37;;;;;;;15.30;4.50;;;;;;;;;;4464928;32;20238;-55
2022/05/26 14:07:36;;;;;;;9.85;4.12;;;;;;;;;;4464283;32;20291;-55
2022/05/26 14:10:16;;;;;;;14.10;3.40;;;;;;;;;;4448876;32;20253;-55
2022/05/26 14:12:44;;;;;;;9.52;3.53;;;;;;;;;;4449528;32;20335;-56
2022/05/26 14:15:11;;;;;;;4.47;3.03;;;;;;;;;;4448851;32;20200;-55
2022/05/26 14:17:39;;;;;;;8.55;3.53;;;;;;;;;;4449569;32;20299;-55
2022/05/26 14:20:22;;;;;;;13.18;2.92;;;;;;;;;;4449693;32;20276;-54
2022/05/26 14:22:48;;;;;;;15.68;4.43;;;;;;;;;;4449250;32;20574;-56
2022/05/26 14:25:24;;;;;;;16.62;3.30;;;;;;;;;;4448908;32;20269;-55
2022/05/26 14:27:56;;;;;;;9.93;3.12;;;;;;;;;;4458251;32;20790;-55
2022/05/26 14:30:40;;;;;;;13.25;3.78;;;;;;;;;;4462809;32;20300;-56
2022/05/26 14:33:21;;;;;;;7.05;3.40;;;;;;;;;;4465128;32;20208;-56
2022/05/26 14:35:47;;;;;;;6.62;3.78;;;;;;;;;;4464542;32;20283;-54
2022/05/26 14:38:13;;;;;;;10.75;3.67;;;;;;;;;;4464297;32;20373;-55
2022/05/26 14:40:39;;;;;;;8.32;3.50;;;;;;;;;;4464294;32;20212;-55
2022/05/26 14:43:07;;;;;;;11.50;4.07;;;;;;;;;;4465164;32;20705;-54
2022/05/26 14:45:33;;;;;;;9.93;3.35;;;;;;;;;;4463916;32;20624;-56
2022/05/26 14:47:59;;;;;;;8.10;3.42;;;;;;;;;;4464581;32;20712;-56
2022/05/26 14:50:24;;;;;;;7.78;3.85;;;;;;;;;;4464025;32;20212;-55
2022/05/26 14:52:51;;;;;;;10.05;3.62;;;;;;;;;;4455545;32;20242;-55
2022/05/26 14:55:30;;;;;;;8.27;3.78;;;;;;;;;;4448784;32;20196;-55
2022/05/26 14:58:00;;;;;;;17.45;3.92;;;;;;;;;;4447411;32;20826;-55
2022/05/26 15:00:31;;;;;;;13.80;4.07;;;;;;;;;;4448428;32;20232;-56
2022/05/26 15:02:56;;;;;;;11.55;4.37;;;;;;;;;;4447775;32;20227;-55
2022/05/26 15:05:22;;;;;;;11.27;4.15;;;;;;;;;;4448178;32;20603;-55
2022/05/26 15:07:48;;;;;;;20.20;4.55;;;;;;;;;;4452205;32;20360;-55
2022/05/26 15:10:16;;;;;;;7.05;3.10;;;;;;;;;;4463924;32;20251;-55
2022/05/26 15:12:42;;;;;;;5.90;4.05;;;;;;;;;;4464701;32;20215;-55
2022/05/26 15:15:11;;;;;;;11.30;3.97;;;;;;;;;;4463879;32;20328;-56
2022/05/26 15:17:36;;;;;;;10.73;3.72;;;;;;;;;;4463889;32;20220;-55
2022/05/26 15:20:05;;;;;;;19.67;4.85;;;;;;;;;;4464123;32;20302;-55
2022/05/26 15:22:32;;;;;;;8.13;3.90;;;;;;;;;;4466194;32;20601;-55
2022/05/26 15:24:59;;;;;;;8.63;4.22;;;;;;;;;;4467409;32;20315;-55
2022/05/26 15:27:28;;;;;;;14.30;4.55;;;;;;;;;;4466775;32;20260;-55
2022/05/26 15:29:54;;;;;;;14.10;4.00;;;;;;;;;;4466608;32;20200;-55
2022/05/26 15:32:34;;;;;;;11.88;4.93;;;;;;;;;;4467180;32;20277;-55
2022/05/26 15:35:00;;;;;;;13.23;4.37;;;;;;;;;;4467284;32;20204;-55
2022/05/26 15:37:25;;;;;;;10.88;3.75;;;;;;;;;;4466866;32;20248;-54
2022/05/26 15:39:52;;;;;;;10.32;4.47;;;;;;;;;;4467340;32;20279;-55
2022/05/26 15:42:19;;;;;;;8.40;4.37;;;;;;;;;;4466990;32;20324;-55
2022/05/26 15:44:45;;;;;;;13.80;5.18;;;;;;;;;;4466464;32;20200;-55